Time;durP1;ratioP1;P1;durP2;ratioP2;P2;SDS_P1;SDS_P2;PMS_P1;PMS_P2;Temp;Humidity;BMP_temperature;BMP_pressure;BME280_temperature;BME280_humidity;BME280_pressure;Samples;Min_cycle;Max_cycle;Signal;HPM_P1;HPM_P2
2021/04/22 00:01:33;;;;;;;9.68;1.38;;;6.20;67.60;;;;;;3574145;40;20787;-79
2021/04/22 00:03:59;;;;;;;6.47;1.85;;;6.20;67.50;;;;;;3569925;40;20052;-79
2021/04/22 00:06:25;;;;;;;7.70;1.35;;;6.30;66.90;;;;;;3569804;40;20037;-80
2021/04/22 00:08:50;;;;;;;7.15;1.45;;;6.30;68.10;;;;;;3579150;40;20351;-79
2021/04/22 00:11:16;;;;;;;4.57;0.73;;;6.30;67.70;;;;;;3576535;40;20126;-79
2021/04/22 00:13:43;;;;;;;9.23;0.38;;;6.30;65.90;;;;;;3559654;40;20061;-79
2021/04/22 00:16:09;;;;;;;5.03;0.40;;;6.30;65.40;;;;;;3572911;40;20126;-79
2021/04/22 00:18:35;;;;;;;6.43;1.08;;;6.30;65.70;;;;;;3574566;40;20053;-79
2021/04/22 00:21:01;;;;;;;9.30;2.53;;;6.30;65.50;;;;;;3569062;40;20244;-79
2021/04/22 00:23:27;;;;;;;12.88;1.45;;;6.30;65.70;;;;;;3569179;40;20045;-78
2021/04/22 00:25:53;;;;;;;2.70;1.15;;;6.30;65.70;;;;;;3560137;40;20101;-78
2021/04/22 00:28:19;;;;;;;5.13;0.70;;;6.20;66.50;;;;;;3573930;40;20044;-78
2021/04/22 00:30:46;;;;;;;2.40;0.38;;;6.20;68.20;;;;;;3569156;40;20037;-78
2021/04/22 00:33:18;;;;;;;4.32;0.40;;;6.20;69.00;;;;;;3568998;40;20044;-78
2021/04/22 00:35:46;;;;;;;;;;;6.10;69.10;;;;;;3571762;40;20034;-79
2021/04/22 00:38:12;;;;;;;6.30;0.40;;;6.00;70.60;;;;;;3569244;40;20119;-80
2021/04/22 00:40:40;;;;;;;5.85;0.68;;;6.00;69.80;;;;;;3569881;40;20292;-78
2021/04/22 00:43:10;;;;;;;5.55;1.30;;;5.90;70.10;;;;;;3561961;40;20042;-78
2021/04/22 00:45:42;;;;;;;9.95;0.70;;;5.80;68.70;;;;;;3558389;40;20295;-79
2021/04/22 00:48:09;;;;;;;5.18;0.50;;;5.70;67.90;;;;;;3574500;40;20072;-81
2021/04/22 00:50:36;;;;;;;9.23;0.68;;;5.70;69.00;;;;;;3574154;40;20094;-80
2021/04/22 00:53:04;;;;;;;3.90;0.40;;;5.60;68.90;;;;;;3573930;40;20059;-79
2021/04/22 00:55:31;;;;;;;4.93;0.43;;;5.50;69.70;;;;;;3566069;40;20062;-79
2021/04/22 00:57:57;;;;;;;3.55;0.43;;;5.50;70.00;;;;;;3573702;40;20048;-79
2021/04/22 01:00:30;;;;;;;3.33;0.30;;;5.50;69.30;;;;;;3566305;40;20041;-79
2021/04/22 01:02:57;;;;;;;6.55;0.43;;;5.40;68.50;;;;;;3557495;40;20052;-78
2021/04/22 01:05:27;;;;;;;4.93;0.30;;;5.50;69.60;;;;;;3556442;40;20057;-79
2021/04/22 01:07:53;;;;;;;9.73;0.98;;;5.50;69.50;;;;;;3561319;40;20053;-79
2021/04/22 01:10:20;;;;;;;10.07;1.00;;;5.40;69.80;;;;;;3555742;40;20068;-78
2021/04/22 01:12:47;;;;;;;5.60;0.50;;;5.50;69.00;;;;;;3565309;40;20072;-79
2021/04/22 01:15:25;;;;;;;3.55;0.70;;;5.60;68.70;;;;;;3566769;40;20037;-78
2021/04/22 01:17:51;;;;;;;4.68;0.60;;;5.60;70.30;;;;;;3564636;40;20053;-78
2021/04/22 01:20:21;;;;;;;6.43;0.77;;;5.60;68.10;;;;;;3571003;40;20053;-79
2021/04/22 01:22:48;;;;;;;7.72;0.88;;;5.70;69.80;;;;;;3565801;40;20177;-79
2021/04/22 01:25:19;;;;;;;3.78;1.17;;;5.80;69.40;;;;;;3564907;40;20073;-79
2021/04/22 01:27:45;;;;;;;9.35;1.05;;;5.80;67.10;;;;;;3559649;40;20045;-78
2021/04/22 01:30:18;;;;;;;5.13;0.38;;;5.80;69.10;;;;;;3567717;40;20324;-79
2021/04/22 01:32:45;;;;;;;5.05;0.63;;;5.90;69.20;;;;;;3567393;40;20077;-81
2021/04/22 01:35:14;;;;;;;4.82;0.20;;;5.90;67.80;;;;;;3566566;40;20068;-81
2021/04/22 01:37:40;;;;;;;5.75;0.60;;;6.00;67.30;;;;;;3566912;40;20042;-80
2021/04/22 01:40:07;;;;;;;2.22;0.65;;;6.00;68.40;;;;;;3568382;40;20055;-79
2021/04/22 01:42:33;;;;;;;9.15;0.55;;;6.00;70.00;;;;;;3573770;40;20041;-80
2021/04/22 01:45:00;;;;;;;4.80;0.30;;;6.10;69.10;;;;;;3576920;40;20045;-81
2021/04/22 01:47:26;;;;;;;6.55;0.30;;;6.10;68.90;;;;;;3575749;40;20041;-79
2021/04/22 01:49:52;;;;;;;5.10;0.30;;;6.10;72.10;;;;;;3576738;40;20045;-79
2021/04/22 01:52:18;;;;;;;13.68;0.88;;;6.10;72.30;;;;;;3571777;40;20307;-78
2021/04/22 01:54:44;;;;;;;7.80;0.40;;;6.20;71.70;;;;;;3567891;40;20264;-79
2021/04/22 01:57:10;;;;;;;4.80;0.52;;;6.10;72.50;;;;;;3572004;40;20041;-80
2021/04/22 01:59:36;;;;;;;9.10;0.60;;;6.10;72.70;;;;;;3567292;40;20055;-80
2021/04/22 02:02:02;;;;;;;4.18;0.85;;;6.10;71.60;;;;;;3573493;40;20131;-79
2021/04/22 02:04:29;;;;;;;6.78;1.25;;;6.10;72.90;;;;;;3565411;40;20037;-80
2021/04/22 02:06:55;;;;;;;3.83;0.40;;;6.10;72.00;;;;;;3573837;40;20301;-79
2021/04/22 02:09:21;;;;;;;4.25;0.45;;;6.10;69.30;;;;;;3575795;40;20037;-78
2021/04/22 02:11:47;;;;;;;5.00;0.60;;;6.10;69.80;;;;;;3574232;40;20033;-78
2021/04/22 02:14:13;;;;;;;7.18;0.70;;;6.00;69.60;;;;;;3566371;40;20053;-79
2021/04/22 02:16:39;;;;;;;5.45;0.77;;;6.10;68.30;;;;;;3566859;40;20063;-79
2021/04/22 02:19:05;;;;;;;7.47;0.32;;;6.00;68.00;;;;;;3575675;40;20037;-79
2021/04/22 02:21:33;;;;;;;4.55;0.40;;;6.10;68.60;;;;;;3576160;40;20041;-80
2021/04/22 02:23:59;;;;;;;3.03;0.35;;;6.10;68.20;;;;;;3569984;40;20048;-79
2021/04/22 02:26:25;;;;;;;3.88;0.57;;;6.10;69.40;;;;;;3574354;40;20053;-79
2021/04/22 02:28:51;;;;;;;10.57;0.70;;;6.20;69.40;;;;;;3575845;40;20073;-79
2021/04/22 02:31:17;;;;;;;7.63;0.63;;;6.10;68.90;;;;;;3567604;40;20041;-80
2021/04/22 02:33:43;;;;;;;7.35;1.50;;;6.20;69.00;;;;;;3557506;40;20072;-81
2021/04/22 02:36:09;;;;;;;8.85;0.60;;;6.20;69.60;;;;;;3565517;40;20050;-79
2021/04/22 02:38:34;;;;;;;8.82;0.68;;;6.20;69.30;;;;;;3568141;40;20426;-78
2021/04/22 02:41:00;;;;;;;6.93;0.57;;;6.20;70.30;;;;;;3571631;40;20045;-79
2021/04/22 02:43:26;;;;;;;6.57;0.60;;;6.20;69.10;;;;;;3564664;40;20045;-78
2021/04/22 02:45:58;;;;;;;6.72;0.70;;;6.20;69.30;;;;;;3562764;40;20060;-80
2021/04/22 02:48:25;;;;;;;7.72;0.75;;;6.30;70.40;;;;;;3556214;40;20303;-79
2021/04/22 02:50:53;;;;;;;9.50;1.13;;;6.30;69.90;;;;;;3556574;40;20064;-80
2021/04/22 02:53:20;;;;;;;5.22;0.55;;;6.30;69.50;;;;;;3554507;40;20029;-80
2021/04/22 02:55:47;;;;;;;10.13;0.68;;;6.30;70.60;;;;;;3557184;40;20150;-79
2021/04/22 02:58:14;;;;;;;6.88;0.63;;;6.30;69.10;;;;;;3557218;40;20052;-80
2021/04/22 03:00:42;;;;;;;5.70;0.73;;;6.30;67.40;;;;;;3562430;40;20691;-80
2021/04/22 03:03:08;;;;;;;6.22;0.55;;;6.30;66.70;;;;;;3564443;40;20045;-80
2021/04/22 03:05:36;;;;;;;7.75;0.80;;;6.30;67.10;;;;;;3556841;40;20046;-79
2021/04/22 03:08:04;;;;;;;5.65;0.40;;;6.30;66.30;;;;;;3566330;40;20130;-78
2021/04/22 03:10:31;;;;;;;5.10;0.98;;;6.30;66.40;;;;;;3563546;40;20041;-80
2021/04/22 03:12:57;;;;;;;5.03;1.60;;;6.30;66.90;;;;;;3563175;40;20050;-79
2021/04/22 03:15:23;;;;;;;5.43;0.30;;;6.30;67.40;;;;;;3555763;40;20135;-78
2021/04/22 03:17:50;;;;;;;4.72;0.30;;;6.30;67.90;;;;;;3557871;40;20359;-79
2021/04/22 03:20:19;;;;;;;6.30;1.23;;;6.30;67.80;;;;;;3565771;40;20428;-78
2021/04/22 03:22:45;;;;;;;3.45;0.63;;;6.30;67.80;;;;;;3561362;40;20105;-79
2021/04/22 03:25:13;;;;;;;6.60;0.60;;;6.30;67.30;;;;;;3565590;40;20044;-78
2021/04/22 03:27:40;;;;;;;2.22;0.75;;;6.20;66.70;;;;;;3555538;40;20078;-77
2021/04/22 03:30:09;;;;;;;6.43;0.70;;;6.20;66.80;;;;;;3556613;40;20478;-79
2021/04/22 03:32:35;;;;;;;5.03;1.13;;;6.10;66.70;;;;;;3556327;40;20146;-78
2021/04/22 03:35:00;;;;;;;7.25;0.50;;;6.10;66.40;;;;;;3556223;40;20329;-78
2021/04/22 03:37:26;;;;;;;4.25;0.40;;;6.10;66.10;;;;;;3564586;40;20045;-79
2021/04/22 03:39:52;;;;;;;3.97;0.32;;;6.10;66.30;;;;;;3564970;40;20374;-78
2021/04/22 03:42:18;;;;;;;3.95;0.52;;;6.10;65.70;;;;;;3575455;40;20037;-78
2021/04/22 03:44:45;;;;;;;9.52;0.43;;;6.10;65.80;;;;;;3573932;40;20043;-80
2021/04/22 03:47:12;;;;;;;4.30;0.55;;;6.10;66.00;;;;;;3565065;40;20048;-77
2021/04/22 03:49:38;;;;;;;8.05;1.05;;;6.10;65.40;;;;;;3556640;40;20055;-78
2021/04/22 03:52:06;;;;;;;8.13;0.68;;;6.20;65.80;;;;;;3566166;40;20060;-80
2021/04/22 03:54:34;;;;;;;4.32;0.98;;;6.20;65.60;;;;;;3565883;40;20418;-79
2021/04/22 03:57:01;;;;;;;6.40;0.30;;;6.20;65.90;;;;;;3568104;40;20201;-79
2021/04/22 03:59:27;;;;;;;9.30;0.88;;;6.20;66.00;;;;;;3575776;40;20057;-79
2021/04/22 04:01:53;;;;;;;7.30;0.47;;;6.20;66.10;;;;;;3566622;40;20268;-78
2021/04/22 04:04:19;;;;;;;3.45;0.40;;;6.20;66.70;;;;;;3575383;40;20041;-79
2021/04/22 04:06:46;;;;;;;4.70;0.32;;;6.20;66.40;;;;;;3569266;40;20100;-80
2021/04/22 04:09:13;;;;;;;6.75;1.88;;;6.30;66.90;;;;;;3574555;40;20134;-78
2021/04/22 04:11:39;;;;;;;10.63;1.02;;;6.30;66.90;;;;;;3574908;40;20336;-80
2021/04/22 04:14:05;;;;;;;7.22;0.50;;;6.30;66.90;;;;;;3566407;40;20341;-79
2021/04/22 04:16:31;;;;;;;7.93;0.50;;;6.30;66.90;;;;;;3575404;40;20048;-80
2021/04/22 04:18:57;;;;;;;5.63;0.50;;;6.30;66.80;;;;;;3574219;40;20040;-80
2021/04/22 04:21:23;;;;;;;6.55;1.30;;;6.30;66.90;;;;;;3575314;40;20079;-81
2021/04/22 04:23:49;;;;;;;4.65;0.30;;;6.30;67.20;;;;;;3575757;40;20044;-78
2021/04/22 04:26:15;;;;;;;3.08;0.30;;;6.20;67.80;;;;;;3575386;40;20037;-80
2021/04/22 04:28:41;;;;;;;8.30;0.73;;;6.20;67.10;;;;;;3577399;40;20048;-79
2021/04/22 04:31:07;;;;;;;13.95;1.48;;;6.20;67.40;;;;;;3569445;40;20065;-81
2021/04/22 04:33:33;;;;;;;4.75;0.77;;;6.30;67.50;;;;;;3566721;40;20045;-78
2021/04/22 04:35:59;;;;;;;4.93;0.50;;;6.20;67.40;;;;;;3558218;40;20056;-79
2021/04/22 04:38:25;;;;;;;7.05;0.50;;;6.20;67.60;;;;;;3565887;40;20069;-78
2021/04/22 04:40:50;;;;;;;5.97;1.02;;;6.30;68.30;;;;;;3565644;40;20143;-77
2021/04/22 04:43:17;;;;;;;8.55;1.25;;;6.30;67.60;;;;;;3566857;40;20060;-78
2021/04/22 04:45:42;;;;;;;11.15;0.68;;;6.30;67.60;;;;;;3567200;40;20041;-79
2021/04/22 04:48:09;;;;;;;4.15;1.10;;;6.30;67.60;;;;;;3566963;40;20341;-79
2021/04/22 04:50:35;;;;;;;6.72;0.68;;;6.30;68.40;;;;;;3567021;40;20411;-80
2021/04/22 04:53:01;;;;;;;9.30;0.90;;;6.40;68.30;;;;;;3565433;40;20150;-79
2021/04/22 04:55:27;;;;;;;5.68;0.50;;;6.30;67.90;;;;;;3566826;40;20037;-80
2021/04/22 04:57:53;;;;;;;5.30;0.93;;;6.40;68.00;;;;;;3566184;40;20048;-79
2021/04/22 05:00:19;;;;;;;12.07;1.98;;;6.40;67.80;;;;;;3566766;40;20045;-79
2021/04/22 05:02:45;;;;;;;5.90;0.60;;;6.40;67.70;;;;;;3567263;40;20041;-80
2021/04/22 05:05:12;;;;;;;3.30;0.80;;;6.30;67.60;;;;;;3566994;40;20310;-80
2021/04/22 05:07:40;;;;;;;23.77;1.05;;;6.40;67.80;;;;;;3566587;40;20048;-79
2021/04/22 05:10:08;;;;;;;13.18;1.67;;;6.40;68.30;;;;;;3565883;40;20053;-79
2021/04/22 05:12:34;;;;;;;7.07;0.82;;;6.40;67.80;;;;;;3564499;40;20045;-78
2021/04/22 05:15:00;;;;;;;8.95;0.88;;;6.40;67.90;;;;;;3556156;40;20038;-80
2021/04/22 05:17:26;;;;;;;11.63;1.52;;;6.40;67.80;;;;;;3557212;40;20560;-78
2021/04/22 05:19:53;;;;;;;5.90;0.68;;;6.40;68.40;;;;;;3567396;40;20044;-79
2021/04/22 05:22:19;;;;;;;16.58;1.40;;;6.40;67.30;;;;;;3566845;40;20315;-78
2021/04/22 05:24:45;;;;;;;10.02;0.50;;;6.40;67.60;;;;;;3566947;40;20133;-78
2021/04/22 05:27:11;;;;;;;4.70;1.30;;;6.50;67.50;;;;;;3565579;40;20053;-79
2021/04/22 05:29:36;;;;;;;4.78;1.35;;;6.50;66.80;;;;;;3565469;40;20214;-79
2021/04/22 05:32:04;;;;;;;7.55;0.95;;;6.50;66.20;;;;;;3566321;40;20034;-77
2021/04/22 05:34:30;;;;;;;7.05;0.50;;;6.50;66.50;;;;;;3565534;40;20041;-78
2021/04/22 05:36:56;;;;;;;4.45;0.60;;;6.50;66.30;;;;;;3574229;40;20273;-79
2021/04/22 05:39:22;;;;;;;6.38;0.43;;;6.50;66.20;;;;;;3573935;40;20053;-78
2021/04/22 05:41:49;;;;;;;3.53;0.50;;;6.60;66.10;;;;;;3573333;40;20553;-79
2021/04/22 05:44:16;;;;;;;2.72;0.47;;;6.60;65.80;;;;;;3567473;40;20048;-78
2021/04/22 05:46:42;;;;;;;7.15;0.68;;;6.60;65.20;;;;;;3568243;40;20127;-78
2021/04/22 05:49:09;;;;;;;4.75;0.30;;;6.60;64.40;;;;;;3561913;40;20342;-78
2021/04/22 05:51:37;;;;;;;3.88;0.90;;;6.70;64.40;;;;;;3564271;40;20041;-79
2021/04/22 05:54:05;;;;;;;5.95;0.70;;;6.70;63.50;;;;;;3572901;40;20032;-78
2021/04/22 05:56:31;;;;;;;4.43;0.80;;;6.80;64.40;;;;;;3574612;40;20036;-80
2021/04/22 05:58:57;;;;;;;4.85;0.40;;;6.80;64.00;;;;;;3564563;40;20040;-79
2021/04/22 06:01:23;;;;;;;5.20;0.40;;;6.90;63.60;;;;;;3565615;40;20080;-79
2021/04/22 06:03:49;;;;;;;6.30;1.35;;;6.80;63.50;;;;;;3571806;40;20081;-78
2021/04/22 06:06:15;;;;;;;5.35;0.70;;;6.90;62.50;;;;;;3573152;40;20102;-79
2021/04/22 06:08:41;;;;;;;3.30;0.52;;;6.90;63.50;;;;;;3572159;40;20213;-78
2021/04/22 06:11:09;;;;;;;2.67;0.40;;;7.10;63.20;;;;;;3574446;40;20037;-78
2021/04/22 06:13:35;;;;;;;4.47;1.30;;;7.00;63.60;;;;;;3573106;40;20049;-78
2021/04/22 06:16:01;;;;;;;4.97;0.50;;;7.10;63.50;;;;;;3575407;40;20051;-79
2021/04/22 06:18:27;;;;;;;5.53;0.95;;;7.10;63.40;;;;;;3572239;40;20243;-78
2021/04/22 06:20:53;;;;;;;6.50;0.50;;;7.10;63.80;;;;;;3576154;40;20040;-79
2021/04/22 06:23:19;;;;;;;12.32;0.80;;;7.10;64.30;;;;;;3561658;40;20052;-79
2021/04/22 06:25:45;;;;;;;5.15;0.47;;;7.20;64.60;;;;;;3559290;40;20041;-79
2021/04/22 06:28:12;;;;;;;5.47;0.30;;;7.20;65.00;;;;;;3549854;40;20042;-78
2021/04/22 06:30:38;;;;;;;3.78;0.60;;;7.20;64.60;;;;;;3560564;40;20594;-80
2021/04/22 06:33:04;;;;;;;3.50;0.65;;;7.20;63.50;;;;;;3562337;40;20048;-78
2021/04/22 06:35:30;;;;;;;4.40;0.32;;;7.30;63.10;;;;;;3562499;40;20123;-78
2021/04/22 06:37:56;;;;;;;3.90;0.32;;;7.40;62.50;;;;;;3558200;40;20048;-77
2021/04/22 06:40:22;;;;;;;5.95;0.30;;;7.40;63.00;;;;;;3557259;40;20042;-79
2021/04/22 06:42:48;;;;;;;6.93;0.30;;;7.40;63.70;;;;;;3559761;40;20033;-79
2021/04/22 06:45:15;;;;;;;5.65;0.75;;;7.40;63.60;;;;;;3558900;40;20647;-79
2021/04/22 06:47:43;;;;;;;4.35;0.40;;;7.40;63.20;;;;;;3558495;40;20128;-78
2021/04/22 06:50:13;;;;;;;3.50;0.52;;;7.40;62.40;;;;;;3552575;40;20049;-79
2021/04/22 06:52:39;;;;;;;7.22;0.60;;;7.40;61.70;;;;;;3563086;40;20378;-78
2021/04/22 06:55:09;;;;;;;3.65;0.40;;;7.40;62.80;;;;;;3559290;40;20034;-79
2021/04/22 06:57:35;;;;;;;5.63;0.50;;;7.40;63.30;;;;;;3571101;40;20362;-79
2021/04/22 07:00:01;;;;;;;3.30;0.38;;;7.40;63.20;;;;;;3570656;40;20331;-80
2021/04/22 07:02:27;;;;;;;10.23;0.90;;;7.50;63.80;;;;;;3573317;40;20041;-79
2021/04/22 07:04:53;;;;;;;5.43;0.35;;;7.50;64.30;;;;;;3571335;40;20076;-79
2021/04/22 07:07:19;;;;;;;5.13;0.68;;;7.60;64.90;;;;;;3573549;40;20044;-78
2021/04/22 07:10:09;;;;;;;6.05;0.65;;;8.00;64.90;;;;;;3563164;40;20444;-80
2021/04/22 07:12:35;;;;;;;3.22;0.50;;;9.00;64.80;;;;;;3571749;40;20041;-78
2021/04/22 07:15:02;;;;;;;5.22;0.60;;;9.20;62.70;;;;;;3573800;40;20126;-80
2021/04/22 07:17:30;;;;;;;7.10;0.70;;;9.50;61.90;;;;;;3574435;40;20037;-78
2021/04/22 07:20:19;;;;;;;7.85;0.85;;;9.70;61.30;;;;;;3563709;40;20030;-78
2021/04/22 07:23:13;;;;;;;4.13;0.50;;;10.00;61.40;;;;;;3562160;40;20040;-79
2021/04/22 07:25:39;;;;;;;2.70;0.40;;;10.30;57.30;;;;;;3567830;40;20048;-77
2021/04/22 07:28:26;;;;;;;5.20;0.52;;;10.90;57.90;;;;;;3572952;40;20312;-79
2021/04/22 07:30:53;;;;;;;3.63;0.50;;;10.70;58.00;;;;;;3571136;40;20064;-78
2021/04/22 07:33:19;;;;;;;7.00;0.90;;;10.30;61.00;;;;;;3574280;40;20039;-78
2021/04/22 07:35:45;;;;;;;7.13;0.95;;;9.80;62.20;;;;;;3564448;40;20048;-79
2021/04/22 07:38:14;;;;;;;4.13;0.30;;;9.40;61.70;;;;;;3575190;40;20138;-78
2021/04/22 07:40:41;;;;;;;4.68;0.63;;;9.00;63.80;;;;;;3574964;40;20620;-77
2021/04/22 07:43:08;;;;;;;3.65;0.30;;;9.00;64.30;;;;;;3574929;40;20041;-80
2021/04/22 07:45:41;;;;;;;3.83;0.40;;;9.20;64.70;;;;;;3562249;40;20045;-77
2021/04/22 07:48:07;;;;;;;5.88;0.40;;;10.30;61.80;;;;;;3571923;40;20049;-79
2021/04/22 07:50:34;;;;;;;3.60;0.47;;;10.50;60.60;;;;;;3571655;40;20052;-78
2021/04/22 07:53:04;;;;;;;4.10;0.40;;;10.20;61.40;;;;;;3560970;40;20061;-78
2021/04/22 07:55:33;;;;;;;5.22;0.57;;;9.50;63.50;;;;;;3573729;40;20068;-78
2021/04/22 07:58:00;;;;;;;4.65;0.30;;;9.10;65.40;;;;;;3571873;40;20040;-79
2021/04/22 08:00:27;;;;;;;5.32;0.88;;;8.90;67.00;;;;;;3573701;40;20039;-78
2021/04/22 08:02:55;;;;;;;7.32;0.40;;;8.80;68.50;;;;;;3565683;40;20114;-78
2021/04/22 08:05:28;;;;;;;3.88;0.40;;;8.80;67.40;;;;;;3574171;40;20045;-79
2021/04/22 08:07:54;;;;;;;7.78;0.50;;;9.10;66.70;;;;;;3566827;40;20044;-79
2021/04/22 08:10:23;;;;;;;1.75;0.30;;;9.40;66.30;;;;;;3573286;40;20449;-79
2021/04/22 08:12:50;;;;;;;3.55;0.60;;;9.70;65.50;;;;;;3567552;40;20077;-80
2021/04/22 08:15:17;;;;;;;7.55;0.93;;;10.30;65.10;;;;;;3567222;40;20041;-77
2021/04/22 08:17:44;;;;;;;2.97;0.40;;;10.30;63.90;;;;;;3572311;40;20045;-78
2021/04/22 08:20:24;;;;;;;6.47;0.50;;;10.80;63.90;;;;;;3571491;40;20045;-77
2021/04/22 08:22:51;;;;;;;6.00;0.47;;;11.20;63.60;;;;;;3573880;40;20501;-78
2021/04/22 08:25:22;;;;;;;4.22;0.60;;;11.40;61.80;;;;;;3572963;40;20236;-79
2021/04/22 08:27:50;;;;;;;7.20;1.30;;;11.80;61.90;;;;;;3575558;40;20049;-78
2021/04/22 08:30:23;;;;;;;4.95;0.85;;;12.60;58.90;;;;;;3563990;40;20037;-77
2021/04/22 08:32:49;;;;;;;6.53;0.43;;;12.80;57.90;;;;;;3573499;40;20041;-78
2021/04/22 08:35:15;;;;;;;4.47;0.55;;;12.60;53.40;;;;;;3575744;40;20033;-77
2021/04/22 08:37:41;;;;;;;4.93;0.70;;;12.20;54.20;;;;;;3575965;40;20052;-79
2021/04/22 08:40:11;;;;;;;3.42;0.57;;;11.70;57.10;;;;;;3572569;40;20451;-78
2021/04/22 08:42:38;;;;;;;3.92;0.30;;;11.20;57.80;;;;;;3561901;40;20353;-78
2021/04/22 08:45:08;;;;;;;2.65;0.90;;;10.80;58.90;;;;;;3574881;40;20343;-78
2021/04/22 08:47:35;;;;;;;3.63;0.35;;;10.80;59.90;;;;;;3572754;40;20362;-78
2021/04/22 08:50:01;;;;;;;4.28;0.70;;;10.90;60.10;;;;;;3574785;40;20043;-79
2021/04/22 08:52:27;;;;;;;2.90;0.20;;;10.90;59.30;;;;;;3572285;40;20045;-77
2021/04/22 08:54:53;;;;;;;2.90;0.35;;;10.80;58.60;;;;;;3566903;40;20075;-77
2021/04/22 08:57:20;;;;;;;3.45;0.32;;;10.80;56.30;;;;;;3575428;40;20069;-78
2021/04/22 08:59:47;;;;;;;2.63;0.43;;;10.90;58.80;;;;;;3565938;40;20037;-79
2021/04/22 09:02:13;;;;;;;5.60;0.40;;;11.00;56.90;;;;;;3574335;40;20045;-80
2021/04/22 09:04:39;;;;;;;2.10;0.43;;;10.50;56.60;;;;;;3574938;40;20037;-78
2021/04/22 09:07:05;;;;;;;5.40;0.60;;;10.50;61.10;;;;;;3575078;40;20044;-79
2021/04/22 09:09:31;;;;;;;6.93;0.70;;;11.10;60.30;;;;;;3575351;40;20336;-80
2021/04/22 09:11:57;;;;;;;2.40;0.43;;;11.40;60.50;;;;;;3574081;40;20049;-79
2021/04/22 09:14:23;;;;;;;5.85;0.40;;;11.60;58.70;;;;;;3573082;40;20036;-79
2021/04/22 09:16:51;;;;;;;6.82;1.13;;;11.80;56.80;;;;;;3572322;40;20130;-81
2021/04/22 09:19:19;;;;;;;7.28;0.60;;;11.70;59.70;;;;;;3572237;40;20047;-80
2021/04/22 09:21:55;;;;;;;5.10;1.13;;;11.40;58.00;;;;;;3564587;40;20411;-80
2021/04/22 09:24:25;;;;;;;11.30;0.50;;;11.10;59.50;;;;;;3565739;40;20343;-80
2021/04/22 09:27:04;;;;;;;4.13;0.50;;;11.10;60.60;;;;;;3574455;40;20040;-80
2021/04/22 09:29:39;;;;;;;6.53;0.40;;;11.10;60.10;;;;;;3569303;40;20063;-80
2021/04/22 09:32:28;;;;;;;4.82;1.05;;;10.70;61.20;;;;;;3575953;40;20033;-79
2021/04/22 09:35:10;;;;;;;1.95;0.60;;;10.80;62.40;;;;;;3576758;40;20130;-79
2021/04/22 09:37:44;;;;;;;6.97;0.40;;;11.10;61.40;;;;;;3570611;40;20048;-78
2021/04/22 09:40:17;;;;;;;8.48;0.40;;;11.60;60.30;;;;;;3573656;40;20164;-79
2021/04/22 09:42:43;;;;;;;1.25;0.40;;;11.90;57.60;;;;;;3572420;40;20044;-80
2021/04/22 09:45:11;;;;;;;4.55;0.38;;;11.70;54.70;;;;;;3574609;40;20033;-79
2021/04/22 09:47:37;;;;;;;5.18;0.60;;;11.50;59.00;;;;;;3573168;40;20600;-78
2021/04/22 09:50:08;;;;;;;4.97;0.50;;;11.60;59.00;;;;;;3566132;40;20052;-78
2021/04/22 09:52:40;;;;;;;6.03;0.82;;;11.80;59.30;;;;;;3572799;40;20033;-80
2021/04/22 09:55:10;;;;;;;6.55;1.08;;;11.80;58.90;;;;;;3576073;40;20045;-79
2021/04/22 09:57:36;;;;;;;9.52;1.10;;;11.80;57.30;;;;;;3574721;40;20063;-79
2021/04/22 10:00:28;;;;;;;6.75;0.60;;;11.70;59.60;;;;;;3562763;40;20037;-79
2021/04/22 10:02:56;;;;;;;4.60;0.60;;;11.50;58.30;;;;;;3575569;40;20033;-80
2021/04/22 10:05:30;;;;;;;10.32;0.82;;;11.30;59.90;;;;;;3575982;40;20086;-79
2021/04/22 10:08:09;;;;;;;4.63;0.70;;;11.10;57.80;;;;;;3576561;40;20048;-79
2021/04/22 10:10:36;;;;;;;5.28;0.50;;;11.00;59.90;;;;;;3571093;40;20176;-80
2021/04/22 10:13:06;;;;;;;4.35;1.05;;;11.10;59.50;;;;;;3573500;40;20048;-79
2021/04/22 10:15:34;;;;;;;2.80;0.30;;;11.00;58.30;;;;;;3571873;40;20416;-79
2021/04/22 10:18:02;;;;;;;4.80;0.55;;;11.10;59.60;;;;;;3573833;40;20048;-79
2021/04/22 10:20:31;;;;;;;4.60;0.55;;;11.10;56.80;;;;;;3572777;40;20038;-80
2021/04/22 10:22:57;;;;;;;6.97;0.50;;;11.10;59.00;;;;;;3575428;40;20347;-78
2021/04/22 10:25:31;;;;;;;6.43;1.35;;;11.20;58.70;;;;;;3574136;40;20041;-79
2021/04/22 10:28:12;;;;;;;7.03;0.60;;;11.30;56.80;;;;;;3576047;40;20623;-79
2021/04/22 10:30:40;;;;;;;2.33;0.40;;;11.20;57.90;;;;;;3570067;40;20069;-78
2021/04/22 10:33:07;;;;;;;4.00;0.32;;;11.20;59.90;;;;;;3573006;40;20035;-77
2021/04/22 10:35:35;;;;;;;3.92;0.60;;;11.10;59.10;;;;;;3562506;40;20347;-79
2021/04/22 10:38:03;;;;;;;6.40;0.77;;;11.20;58.90;;;;;;3573472;40;20134;-80
2021/04/22 10:40:35;;;;;;;2.92;0.73;;;11.10;58.50;;;;;;3572644;40;20041;-78
2021/04/22 10:43:03;;;;;;;4.85;0.43;;;11.10;57.90;;;;;;3574598;40;20032;-79
2021/04/22 10:45:31;;;;;;;6.47;1.35;;;11.20;57.90;;;;;;3574153;40;20037;-79
2021/04/22 10:47:57;;;;;;;3.40;0.65;;;11.10;56.40;;;;;;3575316;40;20240;-79
2021/04/22 10:50:33;;;;;;;4.68;0.90;;;11.00;56.70;;;;;;3575182;40;20037;-80
2021/04/22 10:53:01;;;;;;;5.25;0.50;;;10.90;58.90;;;;;;3570394;40;20037;-78
2021/04/22 10:55:30;;;;;;;6.07;0.55;;;10.80;58.00;;;;;;3572770;40;20340;-79
2021/04/22 10:57:58;;;;;;;3.65;0.50;;;10.70;59.90;;;;;;3570414;40;20048;-81
2021/04/22 11:00:29;;;;;;;6.30;0.60;;;10.70;59.00;;;;;;3573214;40;20523;-79
2021/04/22 11:02:56;;;;;;;4.13;0.50;;;10.70;58.90;;;;;;3575945;40;20356;-79
2021/04/22 11:05:24;;;;;;;4.47;0.52;;;10.60;58.10;;;;;;3572763;40;20037;-79
2021/04/22 11:08:10;;;;;;;4.80;0.45;;;10.60;60.30;;;;;;3573238;40;20343;-79
2021/04/22 11:10:45;;;;;;;3.80;0.80;;;10.60;59.80;;;;;;3568812;40;20037;-79
2021/04/22 11:13:25;;;;;;;4.07;1.17;;;10.60;60.40;;;;;;3572757;40;20585;-79
2021/04/22 11:15:58;;;;;;;4.93;0.73;;;10.70;60.90;;;;;;3574209;40;20044;-78
2021/04/22 11:18:41;;;;;;;3.60;0.30;;;10.90;59.50;;;;;;3573109;40;20040;-78
2021/04/22 11:21:20;;;;;;;2.92;1.45;;;11.10;59.30;;;;;;3565910;40;20044;-78
2021/04/22 11:23:47;;;;;;;6.63;0.40;;;11.30;59.10;;;;;;3574090;40;20040;-79
2021/04/22 11:26:31;;;;;;;6.80;0.93;;;11.50;57.30;;;;;;3572525;40;20043;-79
2021/04/22 11:29:18;;;;;;;5.85;0.60;;;11.50;55.00;;;;;;3569823;40;20049;-78
2021/04/22 11:31:49;;;;;;;4.53;0.50;;;11.50;56.20;;;;;;3569735;40;20047;-79
2021/04/22 11:34:16;;;;;;;5.40;0.68;;;11.40;53.50;;;;;;3571368;40;20267;-79
2021/04/22 11:36:50;;;;;;;5.82;1.15;;;11.50;58.10;;;;;;3564695;40;20041;-79
2021/04/22 11:39:16;;;;;;;3.70;0.40;;;11.60;54.80;;;;;;3570528;40;20059;-78
2021/04/22 11:41:52;;;;;;;2.75;0.50;;;11.80;56.70;;;;;;3564996;40;20060;-79
2021/04/22 11:44:18;;;;;;;7.05;0.40;;;12.10;58.90;;;;;;3573239;40;20048;-78
2021/04/22 11:46:46;;;;;;;4.93;0.68;;;12.40;59.60;;;;;;3566120;40;20052;-79
2021/04/22 11:49:32;;;;;;;5.72;0.50;;;12.60;55.10;;;;;;3575210;40;20036;-79
2021/04/22 11:51:59;;;;;;;5.97;0.60;;;12.60;55.60;;;;;;3563479;40;20037;-78
2021/04/22 11:54:33;;;;;;;3.53;0.35;;;12.50;57.50;;;;;;3569845;40;20053;-79
2021/04/22 11:57:04;;;;;;;3.45;0.55;;;12.50;52.10;;;;;;3570323;40;20044;-79
2021/04/22 11:59:31;;;;;;;5.50;0.70;;;12.50;57.40;;;;;;3570007;40;20300;-79
2021/04/22 12:02:00;;;;;;;5.15;0.50;;;12.70;57.40;;;;;;3560596;40;20037;-78
2021/04/22 12:04:40;;;;;;;2.42;0.40;;;12.70;54.30;;;;;;3572368;40;20063;-80
2021/04/22 12:07:21;;;;;;;5.60;0.40;;;12.70;54.00;;;;;;3569631;40;20052;-78
2021/04/22 12:09:52;;;;;;;3.95;0.30;;;12.60;54.80;;;;;;3572844;40;20101;-78
2021/04/22 12:12:24;;;;;;;8.00;0.45;;;12.50;56.30;;;;;;3573084;40;20037;-79
2021/04/22 12:14:58;;;;;;;4.65;0.50;;;12.40;56.20;;;;;;3564368;40;20036;-78
2021/04/22 12:17:31;;;;;;;4.78;0.40;;;12.40;57.80;;;;;;3571244;40;20316;-79
2021/04/22 12:20:00;;;;;;;4.28;0.68;;;12.60;57.30;;;;;;3572350;40;20041;-79
2021/04/22 12:22:35;;;;;;;3.70;0.70;;;12.60;58.00;;;;;;3575120;40;20085;-78
2021/04/22 12:25:07;;;;;;;6.53;0.65;;;12.80;57.10;;;;;;3572051;40;20052;-79
2021/04/22 12:27:36;;;;;;;4.32;0.57;;;13.10;56.80;;;;;;3569843;40;20064;-79
2021/04/22 12:30:25;;;;;;;6.63;0.90;;;13.30;56.60;;;;;;3569089;40;20138;-79
2021/04/22 12:33:13;;;;;;;8.45;1.30;;;13.20;51.90;;;;;;3573351;40;20036;-78
2021/04/22 12:35:51;;;;;;;3.20;0.40;;;13.10;53.30;;;;;;3563324;40;20045;-78
2021/04/22 12:38:17;;;;;;;5.93;1.35;;;13.30;54.30;;;;;;3564844;40;20126;-78
2021/04/22 12:40:45;;;;;;;4.30;0.70;;;13.10;55.60;;;;;;3573254;40;20053;-78
2021/04/22 12:43:12;;;;;;;7.57;0.88;;;13.10;56.70;;;;;;3575071;40;20142;-80
2021/04/22 12:45:38;;;;;;;2.67;0.52;;;13.00;56.60;;;;;;3574304;40;20191;-79
2021/04/22 12:48:08;;;;;;;5.97;0.68;;;12.90;56.00;;;;;;3572161;40;20045;-79
2021/04/22 12:50:43;;;;;;;7.18;0.50;;;12.70;55.80;;;;;;3573451;40;20044;-79
2021/04/22 12:53:13;;;;;;;3.97;0.95;;;12.80;53.60;;;;;;3561071;40;20045;-79
2021/04/22 12:56:02;;;;;;;7.47;1.52;;;12.70;55.70;;;;;;3574399;40;20402;-79
2021/04/22 12:58:34;;;;;;;7.32;1.02;;;12.60;53.30;;;;;;3571911;40;20897;-79
2021/04/22 13:01:09;;;;;;;3.10;0.47;;;12.50;57.00;;;;;;3572775;40;20138;-78